RYR5365 LFOB-EGBB
Flight info
| Callsign | RYR5365 |
|---|---|
| Flight time | 0h 51m |
| Altitude | 26000 |
| Route | OPALE DCT KESAX DCT DIMAL DCT ALESO T420 HEMEL |
| Aircraft | B38M/M-SDE1FGHILORVWXY/HB1 |
Departure
| Time | 2026-04-22 20:50 |
|---|---|
| Airport | Beauvais-Tillé airport (LFOB) |
Arrival
| Time | 2026-04-22 21:41 |
|---|---|
| Airport | Birmingham Airport (EGBB) |
| Time | Latitude | Longitude | Altitude | Speed | Heading |
|---|---|---|---|---|---|
| 2026-04-22 20:27 | 49.45953 | 2.11521 | 362 ft | 0 kts | 311° |
| 2026-04-22 20:42 | 49.45941 | 2.11542 | 358 ft | 4 kts | 311° |
| 2026-04-22 20:43 | 49.45926 | 2.11574 | 359 ft | 4 kts | 291° |
| 2026-04-22 20:43 | 49.45924 | 2.11611 | 361 ft | 4 kts | 246° |
| 2026-04-22 20:43 | 49.45932 | 2.11629 | 363 ft | 1 kts | 221° |
| 2026-04-22 20:46 | 49.45898 | 2.11584 | 358 ft | 14 kts | 219° |
| 2026-04-22 20:46 | 49.45814 | 2.11465 | 352 ft | 16 kts | 224° |
| 2026-04-22 20:47 | 49.45725 | 2.11341 | 352 ft | 12 kts | 222° |
| 2026-04-22 20:47 | 49.45712 | 2.11221 | 353 ft | 15 kts | 294° |
| 2026-04-22 20:47 | 49.45770 | 2.11079 | 355 ft | 13 kts | 303° |
| 2026-04-22 20:47 | 49.45774 | 2.10985 | 352 ft | 0 kts | 224° |
| 2026-04-22 20:48 | 49.45773 | 2.10984 | 352 ft | 0 kts | 224° |
| 2026-04-22 20:48 | 49.45771 | 2.10981 | 357 ft | 2 kts | 219° |
| 2026-04-22 20:48 | 49.45715 | 2.10928 | 356 ft | 16 kts | 210° |
| 2026-04-22 20:49 | 49.45605 | 2.10914 | 352 ft | 18 kts | 134° |
| 2026-04-22 20:49 | 49.45587 | 2.10949 | 352 ft | 17 kts | 126° |
| 2026-04-22 20:49 | 49.45346 | 2.11512 | 339 ft | 107 kts | 124° |
| 2026-04-22 20:49 | 49.44805 | 2.12786 | 349 ft | 168 kts | 122° |
| 2026-04-22 20:50 | 49.44200 | 2.14191 | 405 ft | 163 kts | 113° |
| 2026-04-22 20:50 | 49.44015 | 2.16044 | 860 ft | 192 kts | 76° |
| 2026-04-22 20:50 | 49.44750 | 2.17650 | 2111 ft | 180 kts | 34° |
| 2026-04-22 20:50 | 49.46010 | 2.17877 | 3169 ft | 197 kts | 356° |
| 2026-04-22 20:51 | 49.47326 | 2.16889 | 3725 ft | 230 kts | 323° |
| 2026-04-22 20:51 | 49.48398 | 2.14898 | 3893 ft | 253 kts | 310° |
| 2026-04-22 20:51 | 49.49492 | 2.12713 | 3834 ft | 261 kts | 311° |
| 2026-04-22 20:51 | 49.50684 | 2.10499 | 3870 ft | 274 kts | 322° |
| 2026-04-22 20:52 | 49.52312 | 2.09099 | 3939 ft | 268 kts | 345° |
| 2026-04-22 20:52 | 49.54087 | 2.08102 | 3964 ft | 273 kts | 345° |
| 2026-04-22 20:52 | 49.55883 | 2.07097 | 4039 ft | 277 kts | 345° |
| 2026-04-22 20:52 | 49.57703 | 2.06091 | 4891 ft | 276 kts | 344° |
| 2026-04-22 20:53 | 49.59520 | 2.05097 | 5984 ft | 280 kts | 343° |
| 2026-04-22 20:53 | 49.61377 | 2.04087 | 6945 ft | 285 kts | 343° |
| 2026-04-22 20:53 | 49.63253 | 2.03070 | 7952 ft | 287 kts | 343° |
| 2026-04-22 20:53 | 49.65160 | 2.02036 | 8779 ft | 293 kts | 343° |
| 2026-04-22 20:54 | 49.67086 | 2.00991 | 8987 ft | 293 kts | 343° |
| 2026-04-22 20:54 | 49.69011 | 1.99946 | 9144 ft | 295 kts | 343° |
| 2026-04-22 20:54 | 49.70944 | 1.98896 | 10066 ft | 293 kts | 343° |
| 2026-04-22 20:54 | 49.72889 | 1.97840 | 10875 ft | 302 kts | 344° |
| 2026-04-22 20:55 | 49.74934 | 1.96726 | 11317 ft | 323 kts | 343° |
| 2026-04-22 20:55 | 49.77125 | 1.95533 | 11743 ft | 342 kts | 343° |
| 2026-04-22 20:55 | 49.79409 | 1.94287 | 12312 ft | 355 kts | 343° |
| 2026-04-22 20:55 | 49.81751 | 1.93009 | 13160 ft | 357 kts | 344° |
| 2026-04-22 20:56 | 49.84086 | 1.91734 | 13994 ft | 362 kts | 344° |
| 2026-04-22 20:56 | 49.86472 | 1.90428 | 14770 ft | 366 kts | 344° |
| 2026-04-22 20:56 | 49.88883 | 1.89090 | 15568 ft | 369 kts | 341° |
| 2026-04-22 20:56 | 49.91104 | 1.87018 | 16357 ft | 377 kts | 324° |
| 2026-04-22 20:57 | 49.93182 | 1.84502 | 17096 ft | 381 kts | 325° |
| 2026-04-22 20:57 | 49.95280 | 1.81960 | 17841 ft | 384 kts | 325° |
| 2026-04-22 20:57 | 49.97389 | 1.79378 | 18541 ft | 389 kts | 324° |
| 2026-04-22 20:57 | 49.99521 | 1.76753 | 19141 ft | 392 kts | 324° |
| 2026-04-22 20:58 | 50.01651 | 1.74123 | 19838 ft | 393 kts | 324° |
| 2026-04-22 20:58 | 50.03799 | 1.71469 | 20526 ft | 394 kts | 324° |
| 2026-04-22 20:58 | 50.05946 | 1.68811 | 21212 ft | 395 kts | 324° |
| 2026-04-22 20:58 | 50.08263 | 1.66579 | 21864 ft | 391 kts | 338° |
| 2026-04-22 20:59 | 50.10743 | 1.64797 | 22486 ft | 394 kts | 336° |
| 2026-04-22 20:59 | 50.13225 | 1.62974 | 23128 ft | 395 kts | 337° |
| 2026-04-22 20:59 | 50.15724 | 1.61153 | 23769 ft | 397 kts | 337° |
| 2026-04-22 20:59 | 50.18238 | 1.59325 | 24288 ft | 398 kts | 336° |
| 2026-04-22 21:00 | 50.20752 | 1.57497 | 24785 ft | 400 kts | 336° |
| 2026-04-22 21:00 | 50.23290 | 1.55650 | 25254 ft | 402 kts | 336° |
| 2026-04-22 21:00 | 50.25831 | 1.53799 | 25778 ft | 403 kts | 336° |
| 2026-04-22 21:00 | 50.28347 | 1.51964 | 26192 ft | 406 kts | 336° |
| 2026-04-22 21:01 | 50.30913 | 1.50091 | 26297 ft | 413 kts | 336° |
| 2026-04-22 21:01 | 50.33559 | 1.48157 | 26303 ft | 421 kts | 336° |
| 2026-04-22 21:01 | 50.36180 | 1.46061 | 26304 ft | 426 kts | 329° |
| 2026-04-22 21:01 | 50.38507 | 1.43179 | 26322 ft | 428 kts | 320° |
| 2026-04-22 21:02 | 50.40787 | 1.40186 | 26312 ft | 427 kts | 322° |
| 2026-04-22 21:02 | 50.43092 | 1.37242 | 26297 ft | 428 kts | 323° |
| 2026-04-22 21:02 | 50.45414 | 1.34306 | 26310 ft | 428 kts | 323° |
| 2026-04-22 21:02 | 50.47738 | 1.31380 | 26313 ft | 428 kts | 323° |
| 2026-04-22 21:03 | 50.50066 | 1.28452 | 26322 ft | 428 kts | 323° |
| 2026-04-22 21:03 | 50.52389 | 1.25528 | 26321 ft | 428 kts | 323° |
| 2026-04-22 21:03 | 50.54714 | 1.22598 | 26322 ft | 428 kts | 323° |
| 2026-04-22 21:03 | 50.57041 | 1.19661 | 26315 ft | 428 kts | 323° |
| 2026-04-22 21:04 | 50.59364 | 1.16727 | 26320 ft | 428 kts | 323° |
| 2026-04-22 21:04 | 50.61685 | 1.13791 | 26321 ft | 428 kts | 323° |
| 2026-04-22 21:04 | 50.64011 | 1.10844 | 26332 ft | 428 kts | 323° |
| 2026-04-22 21:04 | 50.66330 | 1.07903 | 26334 ft | 430 kts | 323° |
| 2026-04-22 21:05 | 50.68661 | 1.04943 | 26344 ft | 431 kts | 323° |
| 2026-04-22 21:05 | 50.70994 | 1.01976 | 26357 ft | 431 kts | 323° |
| 2026-04-22 21:05 | 50.73331 | 0.99001 | 26355 ft | 431 kts | 323° |
| 2026-04-22 21:05 | 50.75655 | 0.96037 | 26352 ft | 431 kts | 323° |
| 2026-04-22 21:06 | 50.77994 | 0.93051 | 26313 ft | 431 kts | 323° |
| 2026-04-22 21:06 | 50.80287 | 0.90120 | 26341 ft | 430 kts | 323° |
| 2026-04-22 21:06 | 50.82609 | 0.87147 | 26339 ft | 429 kts | 323° |
| 2026-04-22 21:06 | 50.84927 | 0.84176 | 26341 ft | 429 kts | 323° |
| 2026-04-22 21:07 | 50.87247 | 0.81198 | 26342 ft | 429 kts | 323° |
| 2026-04-22 21:07 | 50.89570 | 0.78213 | 26345 ft | 430 kts | 323° |
| 2026-04-22 21:07 | 50.91885 | 0.75235 | 26366 ft | 430 kts | 323° |
| 2026-04-22 21:07 | 50.94207 | 0.72242 | 26386 ft | 430 kts | 323° |
| 2026-04-22 21:08 | 50.96527 | 0.69248 | 26407 ft | 430 kts | 323° |
| 2026-04-22 21:08 | 50.98848 | 0.66250 | 26430 ft | 430 kts | 323° |
| 2026-04-22 21:08 | 51.01169 | 0.63247 | 26451 ft | 430 kts | 323° |
| 2026-04-22 21:08 | 51.03486 | 0.60246 | 26470 ft | 430 kts | 323° |
| 2026-04-22 21:09 | 51.05803 | 0.57240 | 26491 ft | 430 kts | 323° |
| 2026-04-22 21:09 | 51.08121 | 0.54229 | 26513 ft | 430 kts | 323° |
| 2026-04-22 21:09 | 51.10440 | 0.51213 | 26535 ft | 430 kts | 323° |
| 2026-04-22 21:09 | 51.12757 | 0.48195 | 26536 ft | 430 kts | 323° |
| 2026-04-22 21:10 | 51.15052 | 0.45201 | 26517 ft | 431 kts | 322° |
| 2026-04-22 21:10 | 51.17371 | 0.42174 | 26533 ft | 432 kts | 322° |
| 2026-04-22 21:10 | 51.19688 | 0.39144 | 26533 ft | 431 kts | 322° |
| 2026-04-22 21:10 | 51.22009 | 0.36106 | 26534 ft | 431 kts | 322° |
| 2026-04-22 21:11 | 51.24328 | 0.33066 | 26535 ft | 431 kts | 322° |
| 2026-04-22 21:11 | 51.26645 | 0.30024 | 26516 ft | 431 kts | 322° |
| 2026-04-22 21:11 | 51.28963 | 0.26976 | 26498 ft | 431 kts | 322° |
| 2026-04-22 21:11 | 51.31277 | 0.23929 | 26474 ft | 431 kts | 322° |
| 2026-04-22 21:12 | 51.33594 | 0.20876 | 26378 ft | 431 kts | 322° |
| 2026-04-22 21:12 | 51.35910 | 0.17820 | 26373 ft | 432 kts | 322° |
| 2026-04-22 21:12 | 51.38227 | 0.14756 | 26375 ft | 432 kts | 322° |
| 2026-04-22 21:12 | 51.40542 | 0.11691 | 26373 ft | 432 kts | 322° |
| 2026-04-22 21:13 | 51.42854 | 0.08627 | 26400 ft | 432 kts | 322° |
| 2026-04-22 21:13 | 51.45168 | 0.05556 | 26400 ft | 432 kts | 322° |
| 2026-04-22 21:13 | 51.47484 | 0.02478 | 26400 ft | 432 kts | 322° |
| 2026-04-22 21:13 | 51.49798 | -0.00601 | 26363 ft | 432 kts | 322° |
| 2026-04-22 21:14 | 51.52112 | -0.03687 | 26400 ft | 434 kts | 321° |
| 2026-04-22 21:14 | 51.54441 | -0.06794 | 26423 ft | 436 kts | 321° |
| 2026-04-22 21:14 | 51.56774 | -0.09911 | 26441 ft | 436 kts | 321° |
| 2026-04-22 21:14 | 51.59107 | -0.13033 | 26459 ft | 436 kts | 321° |
| 2026-04-22 21:15 | 51.61430 | -0.16144 | 26468 ft | 436 kts | 321° |
| 2026-04-22 21:15 | 51.63728 | -0.19229 | 26480 ft | 430 kts | 321° |
| 2026-04-22 21:15 | 51.65973 | -0.22245 | 26288 ft | 415 kts | 321° |
| 2026-04-22 21:15 | 51.68213 | -0.25259 | 25706 ft | 412 kts | 321° |
| 2026-04-22 21:16 | 51.70370 | -0.28165 | 25170 ft | 409 kts | 321° |
| 2026-04-22 21:16 | 51.72550 | -0.31106 | 24588 ft | 407 kts | 321° |
| 2026-04-22 21:16 | 51.74718 | -0.34033 | 23986 ft | 406 kts | 321° |
| 2026-04-22 21:16 | 51.76880 | -0.36959 | 23328 ft | 405 kts | 321° |
| 2026-04-22 21:17 | 51.79035 | -0.39876 | 22655 ft | 402 kts | 321° |
| 2026-04-22 21:17 | 51.81229 | -0.42587 | 22236 ft | 394 kts | 330° |
| 2026-04-22 21:17 | 51.83603 | -0.44882 | 21896 ft | 401 kts | 330° |
| 2026-04-22 21:17 | 51.86002 | -0.47219 | 21566 ft | 406 kts | 330° |
| 2026-04-22 21:18 | 51.88435 | -0.49585 | 21220 ft | 408 kts | 331° |
| 2026-04-22 21:18 | 51.90859 | -0.51947 | 20863 ft | 407 kts | 330° |
| 2026-04-22 21:18 | 51.93299 | -0.54326 | 20503 ft | 408 kts | 330° |
| 2026-04-22 21:18 | 51.95729 | -0.56697 | 20095 ft | 407 kts | 330° |
| 2026-04-22 21:19 | 51.98161 | -0.59073 | 19738 ft | 408 kts | 330° |
| 2026-04-22 21:19 | 52.00596 | -0.61455 | 19386 ft | 408 kts | 330° |
| 2026-04-22 21:19 | 52.03029 | -0.63838 | 19022 ft | 409 kts | 330° |
| 2026-04-22 21:19 | 52.05465 | -0.66231 | 18653 ft | 408 kts | 329° |
| 2026-04-22 21:20 | 52.07892 | -0.68613 | 18252 ft | 407 kts | 329° |
| 2026-04-22 21:20 | 52.10309 | -0.70990 | 17889 ft | 405 kts | 329° |
| 2026-04-22 21:20 | 52.12717 | -0.73360 | 17543 ft | 404 kts | 329° |
| 2026-04-22 21:20 | 52.15117 | -0.75727 | 17164 ft | 403 kts | 329° |
| 2026-04-22 21:21 | 52.17511 | -0.78090 | 16827 ft | 402 kts | 329° |
| 2026-04-22 21:21 | 52.19898 | -0.80448 | 16470 ft | 400 kts | 329° |
| 2026-04-22 21:21 | 52.22228 | -0.82925 | 16055 ft | 399 kts | 320° |
| 2026-04-22 21:21 | 52.24042 | -0.86233 | 15758 ft | 397 kts | 302° |
| 2026-04-22 21:22 | 52.25196 | -0.90289 | 15440 ft | 394 kts | 285° |
| 2026-04-22 21:22 | 52.25906 | -0.94593 | 15116 ft | 390 kts | 282° |
| 2026-04-22 21:22 | 52.26553 | -0.98867 | 14789 ft | 384 kts | 281° |
| 2026-04-22 21:22 | 52.27161 | -1.03072 | 14460 ft | 378 kts | 281° |
| 2026-04-22 21:23 | 52.27746 | -1.07233 | 14119 ft | 373 kts | 281° |
| 2026-04-22 21:23 | 52.28309 | -1.11316 | 13776 ft | 367 kts | 280° |
| 2026-04-22 21:23 | 52.28862 | -1.15363 | 13446 ft | 361 kts | 280° |
| 2026-04-22 21:23 | 52.29402 | -1.19339 | 13139 ft | 355 kts | 280° |
| 2026-04-22 21:24 | 52.29931 | -1.23250 | 12829 ft | 350 kts | 280° |
| 2026-04-22 21:24 | 52.30449 | -1.27094 | 12523 ft | 344 kts | 280° |
| 2026-04-22 21:24 | 52.30960 | -1.30887 | 12226 ft | 339 kts | 280° |
| 2026-04-22 21:24 | 52.31294 | -1.33372 | 12030 ft | 336 kts | 280° |
| 2026-04-22 21:25 | 52.31790 | -1.37079 | 11708 ft | 332 kts | 280° |
| 2026-04-22 21:25 | 52.32280 | -1.40753 | 11396 ft | 329 kts | 280° |
| 2026-04-22 21:25 | 52.32764 | -1.44376 | 11122 ft | 324 kts | 280° |
| 2026-04-22 21:25 | 52.33239 | -1.47953 | 10847 ft | 320 kts | 280° |
| 2026-04-22 21:26 | 52.33703 | -1.51460 | 10575 ft | 313 kts | 280° |
| 2026-04-22 21:26 | 52.34162 | -1.54923 | 10258 ft | 310 kts | 280° |
| 2026-04-22 21:26 | 52.34613 | -1.58347 | 9956 ft | 306 kts | 280° |
| 2026-04-22 21:26 | 52.35162 | -1.61688 | 9665 ft | 304 kts | 292° |
| 2026-04-22 21:27 | 52.36320 | -1.64530 | 9427 ft | 300 kts | 315° |
| 2026-04-22 21:27 | 52.37933 | -1.66593 | 9362 ft | 289 kts | 327° |
| 2026-04-22 21:27 | 52.39668 | -1.68239 | 9276 ft | 288 kts | 340° |
| 2026-04-22 21:27 | 52.41496 | -1.69375 | 9247 ft | 276 kts | 331° |
| 2026-04-22 21:28 | 52.42811 | -1.71509 | 9179 ft | 262 kts | 294° |
| 2026-04-22 21:28 | 52.43124 | -1.74277 | 9104 ft | 240 kts | 256° |
| 2026-04-22 21:28 | 52.42456 | -1.76605 | 9026 ft | 218 kts | 225° |
| 2026-04-22 21:28 | 52.41421 | -1.78418 | 9021 ft | 225 kts | 229° |
| 2026-04-22 21:29 | 52.40671 | -1.80768 | 9060 ft | 238 kts | 243° |
| 2026-04-22 21:29 | 52.40007 | -1.83295 | 9095 ft | 244 kts | 243° |
| 2026-04-22 21:29 | 52.39339 | -1.85857 | 9103 ft | 245 kts | 243° |
| 2026-04-22 21:29 | 52.38674 | -1.88420 | 9084 ft | 245 kts | 243° |
| 2026-04-22 21:30 | 52.38009 | -1.90991 | 9083 ft | 245 kts | 243° |
| 2026-04-22 21:30 | 52.37346 | -1.93558 | 9083 ft | 245 kts | 243° |
| 2026-04-22 21:30 | 52.36683 | -1.96121 | 9080 ft | 245 kts | 243° |
| 2026-04-22 21:30 | 52.36020 | -1.98687 | 9082 ft | 245 kts | 243° |
| 2026-04-22 21:31 | 52.35354 | -2.01257 | 9082 ft | 245 kts | 243° |
| 2026-04-22 21:31 | 52.34692 | -2.03815 | 9074 ft | 244 kts | 243° |
| 2026-04-22 21:31 | 52.34052 | -2.06387 | 9065 ft | 246 kts | 250° |
| 2026-04-22 21:31 | 52.34003 | -2.09175 | 8969 ft | 251 kts | 284° |
| 2026-04-22 21:32 | 52.34886 | -2.11568 | 8879 ft | 253 kts | 319° |
| 2026-04-22 21:32 | 52.36426 | -2.12887 | 8800 ft | 251 kts | 351° |
| 2026-04-22 21:32 | 52.38143 | -2.12824 | 8713 ft | 247 kts | 18° |
| 2026-04-22 21:32 | 52.39635 | -2.11580 | 8625 ft | 239 kts | 46° |
| 2026-04-22 21:33 | 52.40606 | -2.09452 | 8543 ft | 231 kts | 71° |
| 2026-04-22 21:33 | 52.40949 | -2.06937 | 8466 ft | 225 kts | 94° |
| 2026-04-22 21:33 | 52.40780 | -2.04400 | 8385 ft | 224 kts | 102° |
| 2026-04-22 21:33 | 52.40517 | -2.01888 | 8236 ft | 224 kts | 103° |
| 2026-04-22 21:34 | 52.40216 | -1.99381 | 8000 ft | 225 kts | 106° |
| 2026-04-22 21:34 | 52.39588 | -1.97080 | 7706 ft | 222 kts | 126° |
| 2026-04-22 21:34 | 52.38657 | -1.95087 | 7467 ft | 218 kts | 129° |
| 2026-04-22 21:34 | 52.37711 | -1.93159 | 7397 ft | 217 kts | 129° |
| 2026-04-22 21:35 | 52.36764 | -1.91228 | 7398 ft | 218 kts | 129° |
| 2026-04-22 21:35 | 52.35811 | -1.89292 | 7398 ft | 219 kts | 129° |
| 2026-04-22 21:35 | 52.34851 | -1.87342 | 7163 ft | 221 kts | 129° |
| 2026-04-22 21:35 | 52.33876 | -1.85366 | 6814 ft | 225 kts | 129° |
| 2026-04-22 21:36 | 52.32879 | -1.83354 | 6437 ft | 228 kts | 129° |
| 2026-04-22 21:36 | 52.31876 | -1.81342 | 6065 ft | 231 kts | 129° |
| 2026-04-22 21:36 | 52.30870 | -1.79326 | 5672 ft | 228 kts | 129° |
| 2026-04-22 21:36 | 52.29878 | -1.77348 | 5201 ft | 221 kts | 129° |
| 2026-04-22 21:37 | 52.28920 | -1.75441 | 4714 ft | 214 kts | 127° |
| 2026-04-22 21:37 | 52.28359 | -1.73264 | 4223 ft | 210 kts | 97° |
| 2026-04-22 21:37 | 52.28667 | -1.70981 | 3831 ft | 209 kts | 64° |
| 2026-04-22 21:37 | 52.29583 | -1.69117 | 3520 ft | 211 kts | 53° |
| 2026-04-22 21:38 | 52.30587 | -1.67383 | 3222 ft | 209 kts | 52° |
| 2026-04-22 21:38 | 52.31593 | -1.65679 | 3001 ft | 207 kts | 52° |
| 2026-04-22 21:38 | 52.32640 | -1.64050 | 2821 ft | 212 kts | 39° |
| 2026-04-22 21:38 | 52.34055 | -1.63294 | 2654 ft | 216 kts | 8° |
| 2026-04-22 21:39 | 52.35464 | -1.63800 | 2470 ft | 203 kts | 339° |
| 2026-04-22 21:39 | 52.36624 | -1.64996 | 2298 ft | 195 kts | 330° |
| 2026-04-22 21:39 | 52.37722 | -1.66275 | 2056 ft | 193 kts | 330° |
| 2026-04-22 21:39 | 52.38818 | -1.67509 | 1794 ft | 189 kts | 331° |
| 2026-04-22 21:40 | 52.39902 | -1.68710 | 1536 ft | 187 kts | 331° |
| 2026-04-22 21:40 | 52.40925 | -1.69850 | 1296 ft | 168 kts | 332° |
| 2026-04-22 21:40 | 52.41843 | -1.70867 | 1050 ft | 151 kts | 330° |
| 2026-04-22 21:40 | 52.42684 | -1.71800 | 888 ft | 143 kts | 331° |
| 2026-04-22 21:41 | 52.43497 | -1.72707 | 652 ft | 139 kts | 330° |
| 2026-04-22 21:41 | 52.44288 | -1.73596 | 395 ft | 137 kts | 331° |
| 2026-04-22 21:41 | 52.45027 | -1.74417 | 332 ft | 97 kts | 326° |
| 2026-04-22 21:41 | 52.45306 | -1.74720 | 329 ft | 26 kts | 325° |
| 2026-04-22 21:42 | 52.45393 | -1.74787 | 329 ft | 1 kts | 25° |
| 2026-04-22 21:42 | 52.45416 | -1.74728 | 330 ft | 10 kts | 57° |
| 2026-04-22 21:42 | 52.45462 | -1.74603 | 330 ft | 15 kts | 65° |
| 2026-04-22 21:42 | 52.45463 | -1.74544 | 332 ft | 3 kts | 110° |
| 2026-04-22 21:43 | 52.45454 | -1.74509 | 329 ft | 3 kts | 112° |
| 2026-04-22 21:43 | 52.45442 | -1.74468 | 331 ft | 6 kts | 119° |
| 2026-04-22 21:43 | 52.45417 | -1.74392 | 330 ft | 9 kts | 117° |
| 2026-04-22 21:43 | 52.45386 | -1.74288 | 333 ft | 12 kts | 116° |
| 2026-04-22 21:44 | 52.45346 | -1.74156 | 330 ft | 14 kts | 116° |
| 2026-04-22 21:44 | 52.45316 | -1.73992 | 333 ft | 16 kts | 78° |
| 2026-04-22 21:44 | 52.45362 | -1.73879 | 333 ft | 6 kts | 4° |
| 2026-04-22 21:44 | 52.45401 | -1.73913 | 333 ft | 2 kts | 326° |
| 2026-04-22 21:45 | 52.45415 | -1.73929 | 333 ft | 0 kts | 325° |
| 2026-04-22 21:46 | 52.45415 | -1.73928 | 333 ft | 0 kts | 325° |
| 2026-04-22 21:46 | 52.45414 | -1.73928 | 333 ft | 0 kts | 325° |
| 2026-04-22 21:46 | 52.45415 | -1.73928 | 333 ft | 0 kts | 325° |
| 2026-04-22 21:46 | 52.45414 | -1.73928 | 333 ft | 0 kts | 325° |